This is the latest recevied weather packets stored in our database for station/object CE3JSG-13. If no packets are shown the sender has not sent any weather packets the latest 10 day(s).
| Time | Temp. | Humidity | Pressure | Rain* | Wind** | Luminosity | Snow |
|---|---|---|---|---|---|---|---|
| 1777750036 | 29.44° C | 20% | 1010.9 hPa | - | - | - | - |
| 1777749616 | 28.89° C | 21% | 1011.3 hPa | - | - | - | - |
| 1777749196 | 28.89° C | 21% | 1011.5 hPa | - | - | - | - |
| 1777748776 | 28.89° C | 22% | 1012.2 hPa | - | - | - | - |
| 1777748355 | 28.89° C | 21% | 1011.3 hPa | - | - | - | - |
| 1777747936 | 28.89° C | 20% | 1011.8 hPa | - | - | - | - |
| 1777747516 | 28.89° C | 21% | 1011.9 hPa | - | - | - | - |
| 1777747095 | 28.89° C | 23% | 1011.3 hPa | - | - | - | - |
| 1777746676 | 28.89° C | 24% | 1012.7 hPa | - | - | - | - |
| 1777746256 | 28.89° C | 23% | 1012.4 hPa | - | - | - | - |
| 1777745836 | 29.44° C | 23% | 1011.3 hPa | - | - | - | - |
| 1777745416 | 29.44° C | 24% | 1011 hPa | - | - | - | - |
| 1777744995 | 28.89° C | 26% | 1010.3 hPa | - | - | - | - |
| 1777744576 | 27.78° C | 27% | 1012.8 hPa | - | - | - | - |
| 1777744155 | 28.33° C | 27% | 1011.9 hPa | - | - | - | - |
| 1777743736 | 27.78° C | 28% | 1010.1 hPa | - | - | - | - |
| 1777743316 | 26.67° C | 31% | 1012.1 hPa | - | - | - | - |
| 1777742895 | 26.11° C | 32% | 1014.4 hPa | - | - | - | - |
| 1777742475 | 27.22° C | 33% | 1011.5 hPa | - | - | - | - |
| 1777742056 | 26.67° C | 33% | 1011.1 hPa | - | - | - | - |
| 1777741636 | 25.56° C | 35% | 1011.9 hPa | - | - | - | - |
| 1777741215 | 25° C | 37% | 1012 hPa | - | - | - | - |
| 1777740796 | 23.89° C | 39% | 1013.7 hPa | - | - | - | - |
| 1777740375 | 23.89° C | 39% | 1013.6 hPa | - | - | - | - |
| 1777739956 | 23.89° C | 39% | 1013.3 hPa | - | - | - | - |
* Rain since midnight (hover to see other rain measurements)
** Current wind speed in m/s (hover to see current wind gust speed)